Time;durP1;ratioP1;P1;durP2;ratioP2;P2;SDS_P1;SDS_P2;PMS_P1;PMS_P2;Temp;Humidity;BMP_temperature;BMP_pressure;BME280_temperature;BME280_humidity;BME280_pressure;Samples;Min_cycle;Max_cycle;Signal;HPM_P1;HPM_P2
2022/12/04 00:01:58;;;;;;;14.80;9.00;;;;;;;-4.86;84.61;101692.13;106447;1308;23114;-60
2022/12/04 00:04:24;;;;;;;16.20;9.90;;;;;;;-4.87;84.56;101692.57;106292;1308;138338;-60
2022/12/04 00:06:53;;;;;;;21.90;11.80;;;;;;;-4.87;84.47;101692.04;106468;1305;22272;-59
2022/12/04 00:09:24;;;;;;;19.40;10.70;;;;;;;-4.86;84.54;101699.25;106453;1308;22111;-60
2022/12/04 00:11:51;;;;;;;16.20;9.50;;;;;;;-4.87;84.39;101703.03;106329;1305;139558;-60
2022/12/04 00:14:18;;;;;;;20.40;10.20;;;;;;;-4.89;84.26;101703.70;106386;1285;22247;-60
2022/12/04 00:16:44;;;;;;;18.40;10.00;;;;;;;-4.91;84.18;101703.45;106306;1308;138711;-60
2022/12/04 00:19:11;;;;;;;;;;;;;;;-4.92;84.21;101705.14;106403;1300;22354;-60
2022/12/04 00:21:38;;;;;;;17.90;9.60;;;;;;;-4.92;84.10;101703.18;106427;1308;22218;-61
2022/12/04 00:24:05;;;;;;;;;;;;;;;-4.91;84.12;101705.27;106326;1302;139114;-61
2022/12/04 00:26:31;;;;;;;15.80;8.80;;;;;;;-4.91;84.12;101706.00;103802;1308;24342;-60
2022/12/04 00:28:58;;;;;;;;;;;;;;;-4.91;84.19;101710.26;101814;1301;138996;-59
2022/12/04 00:31:26;;;;;;;23.80;10.30;;;;;;;-4.93;84.00;101710.55;102005;1284;22873;-60
2022/12/04 00:33:53;;;;;;;19.60;9.90;;;;;;;-5.06;84.02;101689.65;106060;1309;23227;-60
2022/12/04 00:36:20;;;;;;;;;;;;;;;-5.01;83.87;101704.17;106380;1299;138790;-60
2022/12/04 00:38:47;;;;;;;14.90;7.80;;;;;;;-5.05;83.83;101709.59;106407;1293;22122;-60
2022/12/04 00:41:15;;;;;;;;;;;;;;;-5.07;84.00;101710.43;106337;1306;138406;-60
2022/12/04 00:43:41;;;;;;;17.80;9.90;;;;;;;-5.10;83.95;101709.73;106438;1300;22078;-60
2022/12/04 00:46:08;;;;;;;17.10;10.20;;;;;;;-5.11;84.04;101709.29;106416;1308;22237;-60
2022/12/04 00:48:35;;;;;;;20.10;10.80;;;;;;;-5.11;84.12;101709.27;106318;1308;139000;-59
2022/12/04 00:51:07;;;;;;;16.60;9.80;;;;;;;-5.11;84.10;101708.23;106433;1308;22137;-60
2022/12/04 00:53:34;;;;;;;15.70;9.10;;;;;;;-5.13;83.90;101710.15;106335;1298;138531;-60
2022/12/04 00:56:04;;;;;;;;;;;;;;;-5.16;84.02;101708.91;106508;1308;22432;-58
2022/12/04 00:58:31;;;;;;;15.60;9.10;;;;;;;-5.17;84.01;101711.27;106323;1308;124764;-60
2022/12/04 01:01:02;;;;;;;;;;;;;;;-5.18;83.92;101706.39;106451;1306;22427;-60
2022/12/04 01:03:29;;;;;;;15.90;8.60;;;;;;;-5.20;84.08;101704.73;106435;1307;22303;-60
2022/12/04 01:05:55;;;;;;;;;;;;;;;-5.19;84.12;101703.14;106361;1307;139340;-59
2022/12/04 01:08:22;;;;;;;18.80;9.70;;;;;;;-5.17;84.31;101704.56;106439;1308;22325;-60
2022/12/04 01:10:49;;;;;;;17.20;9.50;;;;;;;-5.15;84.29;101701.20;106307;1307;139524;-61
2022/12/04 01:13:15;;;;;;;17.70;10.00;;;;;;;-5.14;84.33;101703.45;106435;1308;22221;-60
2022/12/04 01:15:42;;;;;;;18.70;9.20;;;;;;;-5.14;84.39;101703.09;106425;1308;22198;-60
2022/12/04 01:18:10;;;;;;;16.10;9.20;;;;;;;-5.15;84.40;101704.02;106320;1308;137742;-60
2022/12/04 01:20:37;;;;;;;19.30;9.80;;;;;;;-5.15;84.47;101699.95;106435;1305;22148;-63
2022/12/04 01:23:03;;;;;;;;;;;;;;;-5.21;84.53;101694.55;106393;1305;139009;-59
2022/12/04 01:25:30;;;;;;;22.40;9.80;;;;;;;-5.19;84.51;101702.89;106428;1308;22131;-60
2022/12/04 01:27:57;;;;;;;;;;;;;;;-5.21;84.69;101704.66;106421;1300;22537;-61
2022/12/04 01:30:23;;;;;;;21.60;10.40;;;;;;;-5.23;84.92;101706.21;106344;1308;125208;-61
2022/12/04 01:32:50;;;;;;;16.10;10.90;;;;;;;-5.24;84.96;101705.71;106432;1308;22177;-63
2022/12/04 01:35:17;;;;;;;21.10;11.00;;;;;;;-5.24;85.13;101709.24;106359;1291;139159;-60
2022/12/04 01:37:44;;;;;;;;;;;;;;;-5.24;85.06;101707.67;106377;1308;22365;-61
2022/12/04 01:40:14;;;;;;;19.40;10.70;;;;;;;-5.26;85.05;101707.26;106377;1308;22233;-61
2022/12/04 01:42:41;;;;;;;18.10;10.00;;;;;;;-5.27;85.13;101706.48;106289;1308;138275;-61
2022/12/04 01:45:26;;;;;;;;;;;;;;;-5.30;85.13;101704.69;106380;1308;23187;-61
2022/12/04 01:47:54;;;;;;;18.10;9.10;;;;;;;-5.32;85.27;101705.55;106322;1307;125361;-60
2022/12/04 01:50:21;;;;;;;21.30;10.00;;;;;;;-5.34;85.40;101709.55;106443;1308;22227;-60
2022/12/04 01:52:48;;;;;;;18.40;9.70;;;;;;;-5.36;85.35;101706.50;106280;1307;139816;-62
2022/12/04 01:55:15;;;;;;;19.60;10.10;;;;;;;-5.41;85.56;101700.15;106441;1300;23272;-60
2022/12/04 01:57:41;;;;;;;;;;;;;;;-5.40;85.58;101700.63;106456;1300;23251;-60
2022/12/04 02:00:11;;;;;;;18.20;9.60;;;;;;;-5.36;85.73;101707.75;106290;1308;125623;-62
2022/12/04 02:02:39;;;;;;;19.10;10.10;;;;;;;-5.36;85.69;101702.66;106438;1308;23471;-62
2022/12/04 02:05:08;;;;;;;16.70;10.10;;;;;;;-5.37;85.76;101706.75;106280;1298;140021;-60
2022/12/04 02:07:35;;;;;;;16.70;10.00;;;;;;;-5.38;85.87;101705.41;106308;1303;22234;-61
2022/12/04 02:10:07;;;;;;;;;;;;;;;-5.40;85.71;101705.05;106473;1300;22389;-61
2022/12/04 02:12:48;;;;;;;18.60;9.40;;;;;;;-5.42;85.59;101704.62;106305;1308;124928;-60
2022/12/04 02:15:21;;;;;;;21.90;10.70;;;;;;;-5.45;85.83;101704.10;106376;1294;23521;-59
2022/12/04 02:17:56;;;;;;;21.40;9.90;;;;;;;-5.45;85.81;101708.22;106281;1300;138799;-62
2022/12/04 02:20:48;;;;;;;15.00;8.80;;;;;;;-5.47;85.92;101706.55;106409;1308;23018;-61
2022/12/04 02:23:28;;;;;;;17.80;9.80;;;;;;;-5.46;86.12;101710.17;106246;1308;139032;-61
2022/12/04 02:26:16;;;;;;;15.60;9.30;;;;;;;-5.45;86.20;101713.67;106333;1309;22143;-60
2022/12/04 02:29:31;;;;;;;18.50;10.40;;;;;;;-5.45;86.05;101712.08;106344;1308;140073;-61
2022/12/04 02:32:05;;;;;;;17.10;9.40;;;;;;;-5.45;86.06;101713.67;105824;1313;22397;-60
2022/12/04 02:34:45;;;;;;;15.40;8.60;;;;;;;-5.45;86.22;101713.46;105757;1309;139812;-60
2022/12/04 02:37:18;;;;;;;17.30;10.60;;;;;;;-5.44;86.19;101717.14;105916;1313;22200;-61
2022/12/04 02:40:09;;;;;;;15.80;9.40;;;;;;;-5.44;86.14;101715.17;105844;1313;22293;-60
2022/12/04 02:42:42;;;;;;;16.10;9.20;;;;;;;-5.48;86.15;101715.31;105590;1306;139090;-59
2022/12/04 02:45:13;;;;;;;13.10;8.40;;;;;;;-5.43;86.05;101722.90;105850;1313;24283;-60
2022/12/04 02:47:40;;;;;;;14.20;8.80;;;;;;;-5.40;86.20;101723.29;105420;1309;139152;-62
2022/12/04 02:50:17;;;;;;;17.00;8.90;;;;;;;-5.40;86.15;101720.42;105825;1313;22187;-61
2022/12/04 02:52:53;;;;;;;15.80;8.20;;;;;;;-5.40;86.01;101725.54;105547;1312;139551;-63
2022/12/04 02:55:28;;;;;;;14.10;9.20;;;;;;;-5.39;86.20;101724.08;105653;1306;22272;-60
2022/12/04 02:57:57;;;;;;;19.20;10.30;;;;;;;-5.38;86.14;101727.77;105750;1313;22203;-61
2022/12/04 03:00:24;;;;;;;17.60;8.00;;;;;;;-5.38;86.14;101727.36;105752;1313;139520;-63
2022/12/04 03:02:57;;;;;;;17.30;9.40;;;;;;;-5.37;86.09;101724.14;105853;1310;22169;-60
2022/12/04 03:06:01;;;;;;;13.80;8.50;;;;;;;-5.37;85.95;101723.23;105748;1313;139194;-60
2022/12/04 03:08:39;;;;;;;18.40;10.80;;;;;;;-5.38;86.07;101722.98;106275;1300;22109;-60
2022/12/04 03:11:06;;;;;;;24.00;9.80;;;;;;;-5.41;85.99;101720.67;106322;1308;139008;-60
2022/12/04 03:13:42;;;;;;;16.00;9.50;;;;;;;-5.43;86.01;101720.11;106181;1305;22201;-61
2022/12/04 03:16:13;;;;;;;18.20;9.60;;;;;;;-5.44;85.97;101719.60;106307;1300;22301;-61
2022/12/04 03:18:42;;;;;;;16.80;10.30;;;;;;;-5.44;86.13;101719.31;106269;1308;139195;-60
2022/12/04 03:21:11;;;;;;;19.70;11.20;;;;;;;-5.45;86.21;101721.10;106443;1307;22220;-62
2022/12/04 03:24:10;;;;;;;19.30;10.60;;;;;;;-5.45;86.40;101720.24;106320;1303;139607;-62
2022/12/04 03:26:39;;;;;;;17.50;10.60;;;;;;;-5.45;86.16;101718.98;105906;1311;22301;-60
2022/12/04 03:29:13;;;;;;;17.00;10.00;;;;;;;-5.46;86.26;101725.62;105923;1310;139538;-60
2022/12/04 03:32:12;;;;;;;18.00;10.30;;;;;;;-5.47;86.40;101724.44;105786;1312;22360;-62
2022/12/04 03:34:50;;;;;;;22.30;9.80;;;;;;;-5.47;86.26;101724.99;105771;1314;141080;-60
2022/12/04 03:37:18;;;;;;;15.70;10.30;;;;;;;-5.47;86.47;101725.65;105801;1312;22359;-59
2022/12/04 03:39:56;;;;;;;15.10;9.50;;;;;;;-5.47;86.49;101726.03;105913;1313;22311;-59
2022/12/04 03:42:25;;;;;;;18.10;10.40;;;;;;;-5.47;86.40;101726.56;105584;1312;139410;-62
2022/12/04 03:45:02;;;;;;;19.00;11.60;;;;;;;-5.49;86.50;101733.05;105872;1312;22168;-61
2022/12/04 03:47:35;;;;;;;16.70;10.70;;;;;;;-5.51;86.45;101735.67;105842;1313;138824;-59
2022/12/04 03:50:15;;;;;;;16.70;9.80;;;;;;;-5.53;86.48;101734.91;105806;1313;22268;-60
2022/12/04 03:52:50;;;;;;;18.60;10.40;;;;;;;-5.54;86.69;101735.69;105672;1313;138984;-60
2022/12/04 03:55:48;;;;;;;24.30;12.90;;;;;;;-5.53;86.74;101741.33;105956;1313;23240;-59
2022/12/04 03:58:21;;;;;;;20.80;12.10;;;;;;;-5.53;86.82;101734.74;105867;1310;22358;-60
2022/12/04 04:00:49;;;;;;;19.80;11.20;;;;;;;-5.54;86.63;101741.75;105852;1309;22255;-60
2022/12/04 04:03:37;;;;;;;22.00;11.00;;;;;;;-5.55;86.93;101738.98;105979;1311;22471;-61
2022/12/04 04:06:21;;;;;;;21.50;9.90;;;;;;;-5.56;86.89;101742.04;106261;1308;140125;-61
2022/12/04 04:08:49;;;;;;;18.80;11.40;;;;;;;-5.58;87.04;101740.55;106258;1303;22316;-61
2022/12/04 04:11:29;;;;;;;21.00;13.00;;;;;;;-5.61;87.13;101740.07;106047;1310;138583;-59
2022/12/04 04:25:23;;;;;;;32.30;17.40;;;;;;;-5.64;87.64;101735.51;106311;1301;22251;-60
2022/12/04 04:27:54;;;;;;;24.80;14.00;;;;;;;-5.66;87.58;101733.88;106364;1308;22117;-60
2022/12/04 04:30:20;;;;;;;22.40;13.20;;;;;;;-5.67;87.77;101737.14;106250;1299;139073;-62
2022/12/04 04:32:47;;;;;;;;;;;;;;;-5.72;87.73;101736.51;106305;1309;22392;-60
2022/12/04 04:35:32;;;;;;;26.30;15.60;;;;;;;-5.80;87.99;101734.25;106263;1310;124523;-60
2022/12/04 04:38:16;;;;;;;29.80;15.70;;;;;;;-5.77;88.09;101750.28;106383;1302;22161;-60
2022/12/04 04:40:49;;;;;;;40.50;18.40;;;;;;;-5.78;88.22;101744.20;106239;1303;139832;-60
2022/12/04 04:43:32;;;;;;;42.80;16.60;;;;;;;-5.79;88.11;101746.23;106322;1308;22300;-58
2022/12/04 04:46:07;;;;;;;22.50;12.80;;;;;;;-5.79;88.46;101744.98;106367;1309;22139;-63
2022/12/04 04:48:56;;;;;;;24.80;12.60;;;;;;;-5.82;88.41;101741.95;106122;1301;139310;-59
2022/12/04 04:51:22;;;;;;;28.60;13.50;;;;;;;-5.84;88.72;101742.11;106312;1309;22140;-61
2022/12/04 04:53:57;;;;;;;29.30;16.50;;;;;;;-5.90;88.51;101731.68;106049;1309;138452;-63
2022/12/04 04:56:24;;;;;;;40.60;20.70;;;;;;;-5.88;88.91;101747.67;106298;1301;22897;-60
2022/12/04 04:58:50;;;;;;;;;;;;;;;-5.89;88.97;101748.45;106322;1301;139160;-59
2022/12/04 05:01:19;;;;;;;19.10;11.80;;;;;;;-5.90;89.16;101751.17;106428;1308;22148;-60
2022/12/04 05:03:45;;;;;;;19.70;12.10;;;;;;;-5.91;89.14;101755.28;106449;1306;22224;-60
2022/12/04 05:06:12;;;;;;;23.60;12.10;;;;;;;-5.90;89.35;101754.02;104265;1308;138569;-63
2022/12/04 05:08:39;;;;;;;;;;;;;;;-5.92;89.23;101753.41;101858;1290;25024;-62
2022/12/04 05:11:06;;;;;;;25.40;16.70;;;;;;;-5.90;89.44;101758.23;101794;1290;126014;-63
2022/12/04 05:13:32;;;;;;;;;;;;;;;-5.90;89.56;101755.39;101757;1307;24111;-64
2022/12/04 05:16:00;;;;;;;49.50;19.80;;;;;;;-5.89;89.57;101752.17;101953;1299;25030;-62
2022/12/04 05:18:28;;;;;;;30.70;15.30;;;;;;;-5.91;89.60;101754.27;105970;1307;139053;-63
2022/12/04 05:20:55;;;;;;;77.70;27.30;;;;;;;-5.93;89.73;101752.30;106416;1306;22216;-64
2022/12/04 05:23:21;;;;;;;77.50;24.50;;;;;;;-5.96;89.96;101749.81;106364;1307;138489;-63
2022/12/04 05:25:48;;;;;;;;;;;;;;;-5.96;89.79;101753.91;106475;1307;23137;-63
2022/12/04 05:28:15;;;;;;;31.30;13.90;;;;;;;-5.95;90.05;101758.97;106422;1299;22166;-63
2022/12/04 05:30:42;;;;;;;;;;;;;;;-5.96;90.03;101760.25;106408;1306;138957;-64
2022/12/04 05:33:09;;;;;;;52.60;25.40;;;;;;;-5.98;90.01;101754.88;106468;1291;23221;-63
2022/12/04 05:35:35;;;;;;;58.90;22.20;;;;;;;-5.99;89.99;101754.96;106314;1307;140686;-61
2022/12/04 05:38:02;;;;;;;32.70;15.20;;;;;;;-6.01;90.13;101751.16;106448;1306;22293;-60
2022/12/04 05:40:29;;;;;;;52.70;20.90;;;;;;;-6.02;90.16;101753.20;106326;1302;139374;-61
2022/12/04 05:42:56;;;;;;;47.50;22.50;;;;;;;-6.06;90.09;101759.08;106383;1308;22654;-60
2022/12/04 05:45:22;;;;;;;;;;;;;;;-6.12;90.07;101754.69;106437;1294;22607;-60
2022/12/04 05:47:49;;;;;;;83.50;34.60;;;;;;;-6.09;90.25;101757.66;106278;1307;125631;-60
2022/12/04 05:50:16;;;;;;;90.20;35.30;;;;;;;-6.09;90.27;101760.87;106384;1307;22199;-60
2022/12/04 05:52:42;;;;;;;109.90;40.30;;;;;;;-6.08;90.58;101763.86;106348;1306;139018;-61
2022/12/04 05:55:09;;;;;;;;;;;;;;;-6.07;90.56;101764.13;106483;1299;22368;-61
2022/12/04 05:57:36;;;;;;;31.40;17.10;;;;;;;-6.09;90.52;101767.05;106451;1306;22406;-61
2022/12/04 06:00:04;;;;;;;48.30;17.90;;;;;;;-6.10;90.52;101773.48;106325;1308;140250;-61
2022/12/04 06:02:36;;;;;;;37.30;19.60;;;;;;;-6.12;90.63;101773.08;106484;1307;22221;-61
2022/12/04 06:05:04;;;;;;;49.70;30.50;;;;;;;-6.15;90.61;101773.26;106374;1306;140343;-60
2022/12/04 06:07:34;;;;;;;28.40;14.30;;;;;;;-6.17;90.43;101770.95;106437;1306;22114;-59
2022/12/04 06:10:01;;;;;;;;;;;;;;;-6.20;90.48;101765.80;106454;1304;23655;-60
2022/12/04 06:12:29;;;;;;;64.50;22.30;;;;;;;-6.21;90.68;101771.52;106335;1307;125695;-61
2022/12/04 06:14:56;;;;;;;67.90;24.30;;;;;;;-6.27;90.66;101765.05;106434;1306;22154;-60
2022/12/04 06:17:23;;;;;;;105.60;33.10;;;;;;;-6.26;90.81;101773.96;106338;1307;139574;-60
2022/12/04 06:19:51;;;;;;;;;;;;;;;-6.27;90.80;101774.77;106402;1298;22421;-60
2022/12/04 06:22:19;;;;;;;60.30;22.50;;;;;;;-6.26;91.14;101774.86;106465;1305;22318;-60
2022/12/04 06:24:46;;;;;;;89.50;37.80;;;;;;;-6.26;90.99;101777.04;106277;1300;140746;-61
2022/12/04 06:27:13;;;;;;;196.90;89.60;;;;;;;-6.30;91.00;101782.02;106397;1307;23247;-60
2022/12/04 06:29:55;;;;;;;60.60;24.30;;;;;;;-6.33;90.90;101780.23;106329;1306;141385;-59
2022/12/04 06:32:22;;;;;;;68.30;25.60;;;;;;;-6.34;91.10;101786.35;106416;1306;22100;-60
2022/12/04 06:34:52;;;;;;;87.10;29.50;;;;;;;-6.37;91.17;101791.98;106312;1307;140457;-59
2022/12/04 06:37:20;;;;;;;45.10;17.30;;;;;;;-6.39;91.28;101790.90;102289;1294;26539;-59
2022/12/04 06:39:47;;;;;;;39.70;15.40;;;;;;;-6.40;91.35;101792.92;101900;1291;25149;-58
2022/12/04 06:42:14;;;;;;;;;;;;;;;-6.39;91.44;101794.46;101888;1315;139415;-58
2022/12/04 06:44:41;;;;;;;65.30;21.90;;;;;;;-6.38;91.59;101792.79;101848;1294;22488;-59
2022/12/04 06:47:07;;;;;;;37.90;15.40;;;;;;;-6.39;91.53;101797.44;101805;1300;139738;-60
2022/12/04 06:49:35;;;;;;;84.90;50.00;;;;;;;-6.40;91.64;101796.98;101758;1300;25379;-59
2022/12/04 06:52:02;;;;;;;68.40;31.70;;;;;;;-6.41;91.74;101798.05;101861;1314;25267;-59
2022/12/04 06:54:28;;;;;;;53.80;19.30;;;;;;;-6.42;91.77;101795.29;101636;1290;138742;-59
2022/12/04 06:56:55;;;;;;;85.30;28.30;;;;;;;-6.40;91.90;101794.67;101739;1293;24314;-59
2022/12/04 06:59:22;;;;;;;;;;;;;;;-6.40;91.77;101798.52;101671;1286;138612;-60
2022/12/04 07:01:49;;;;;;;42.00;20.00;;;;;;;-6.42;91.72;101803.42;101675;1291;23994;-59
2022/12/04 07:04:16;;;;;;;43.10;18.80;;;;;;;-6.43;91.70;101804.36;101879;1299;23875;-60
2022/12/04 07:06:43;;;;;;;;;;;;;;;-6.43;91.74;101802.60;101884;1304;138664;-60
2022/12/04 07:09:12;;;;;;;45.80;19.40;;;;;;;-6.45;91.63;101805.22;101954;1290;22578;-59
2022/12/04 07:11:39;;;;;;;44.30;25.30;;;;;;;-6.48;91.46;101806.77;101790;1290;139616;-60
2022/12/04 07:14:07;;;;;;;26.30;16.90;;;;;;;-6.49;91.53;101804.61;101823;1299;23020;-59
2022/12/04 07:16:33;;;;;;;143.70;40.80;;;;;;;-6.50;91.51;101801.64;106296;1307;140139;-59
2022/12/04 07:19:09;;;;;;;69.10;24.40;;;;;;;-6.50;91.57;101805.18;106433;1308;22116;-60
2022/12/04 07:21:36;;;;;;;31.30;15.70;;;;;;;-6.49;91.41;101805.60;106429;1306;22976;-59
2022/12/04 07:24:03;;;;;;;;;;;;;;;-6.47;91.31;101804.06;106328;1306;139179;-59
2022/12/04 07:26:29;;;;;;;44.90;16.70;;;;;;;-6.46;91.07;101801.04;106455;1307;22423;-59
2022/12/04 07:28:57;;;;;;;59.80;21.00;;;;;;;-6.49;90.96;101802.44;106326;1308;140007;-59
2022/12/04 07:31:24;;;;;;;32.10;15.60;;;;;;;-6.51;90.91;101798.70;106418;1306;22126;-59
2022/12/04 07:33:52;;;;;;;22.40;13.20;;;;;;;-6.51;90.83;101793.23;106382;1300;23361;-59
2022/12/04 07:36:19;;;;;;;23.20;14.80;;;;;;;-6.50;90.87;101798.27;106388;1307;139595;-59
2022/12/04 07:38:46;;;;;;;31.40;14.70;;;;;;;-6.48;90.92;101802.90;106368;1307;22145;-60
2022/12/04 07:41:13;;;;;;;;;;;;;;;-6.46;90.97;101805.08;106340;1306;138502;-60
2022/12/04 07:43:40;;;;;;;75.00;29.50;;;;;;;-6.44;90.85;101803.91;106446;1306;22915;-59
2022/12/04 07:46:14;;;;;;;;;;;;;;;-6.43;90.83;101801.89;106453;1306;23153;-59
2022/12/04 07:48:41;;;;;;;48.40;19.30;;;;;;;-6.40;90.91;101796.64;106321;1306;124855;-59
2022/12/04 07:51:14;;;;;;;;;;;;;;;-6.37;90.90;101801.94;106484;1306;23438;-59
2022/12/04 07:53:41;;;;;;;34.70;16.20;;;;;;;-6.35;90.87;101806.02;106312;1302;124828;-59
2022/12/04 07:56:08;;;;;;;;;;;;;;;-6.32;90.89;101809.20;106527;1297;22430;-59
2022/12/04 07:58:34;;;;;;;42.90;19.40;;;;;;;-6.30;90.93;101807.30;106254;1302;126142;-59
2022/12/04 08:01:11;;;;;;;;;;;;;;;-6.29;90.71;101803.89;106490;1307;22345;-60
2022/12/04 08:03:41;;;;;;;45.90;18.60;;;;;;;-6.30;90.56;101810.27;106404;1294;23274;-59
2022/12/04 08:06:18;;;;;;;51.10;20.70;;;;;;;-6.31;90.51;101812.81;106298;1307;138986;-66
2022/12/04 08:08:45;;;;;;;41.90;18.30;;;;;;;-6.29;90.56;101813.08;106288;1295;22218;-66
2022/12/04 08:11:14;;;;;;;41.30;18.30;;;;;;;-6.28;90.37;101809.11;106309;1307;140072;-66
2022/12/04 08:13:40;;;;;;;37.80;23.40;;;;;;;-6.27;90.34;101812.42;106407;1308;22901;-66
2022/12/04 08:16:08;;;;;;;;;;;;;;;-6.27;90.41;101806.56;106508;1306;22482;-65
2022/12/04 08:18:34;;;;;;;62.20;23.80;;;;;;;-6.26;90.15;101806.33;106325;1306;125030;-66
2022/12/04 08:21:14;;;;;;;;;;;;;;;-6.25;90.06;101800.97;106383;1300;22604;-66
2022/12/04 08:23:41;;;;;;;61.60;25.50;;;;;;;-6.24;89.97;101803.19;106383;1306;124845;-65
2022/12/04 08:26:08;;;;;;;38.10;17.50;;;;;;;-6.24;89.92;101805.36;106412;1306;22315;-66
2022/12/04 08:28:35;;;;;;;52.00;20.50;;;;;;;-6.26;89.69;101805.24;106388;1305;139409;-65
2022/12/04 08:31:07;;;;;;;51.30;19.60;;;;;;;-6.24;89.78;101806.41;106411;1307;22134;-65
2022/12/04 08:33:34;;;;;;;63.60;25.20;;;;;;;-6.21;89.77;101801.80;106515;1298;22602;-66
2022/12/04 08:36:00;;;;;;;;;;;;;;;-6.21;89.51;101802.84;104791;1305;138695;-59
2022/12/04 08:38:27;;;;;;;29.10;15.10;;;;;;;-6.27;89.47;101790.66;101910;1299;22486;-59
2022/12/04 08:40:58;;;;;;;71.00;25.20;;;;;;;-6.21;89.39;101799.67;101885;1308;139731;-60
2022/12/04 08:43:25;;;;;;;66.40;22.80;;;;;;;-6.23;89.22;101795.75;101856;1291;25355;-59
2022/12/04 08:45:56;;;;;;;48.70;19.80;;;;;;;-6.25;89.23;101798.70;101924;1291;22510;-59
2022/12/04 08:48:23;;;;;;;70.80;22.20;;;;;;;-6.24;89.14;101799.34;101888;1299;139265;-60
2022/12/04 08:50:50;;;;;;;42.00;20.00;;;;;;;-6.23;89.02;101802.64;101761;1293;27458;-60
2022/12/04 08:53:17;;;;;;;;;;;;;;;-6.23;88.71;101802.27;101914;1307;139618;-60
2022/12/04 08:55:44;;;;;;;28.20;15.40;;;;;;;-6.24;88.80;101797.55;101919;1293;25358;-60
2022/12/04 08:58:11;;;;;;;24.30;13.80;;;;;;;-6.25;88.49;101795.67;101960;1291;22490;-58
2022/12/04 09:00:37;;;;;;;;;;;;;;;-6.27;88.60;101794.20;101791;1301;139152;-60
2022/12/04 09:03:04;;;;;;;28.40;14.90;;;;;;;-6.27;88.45;101791.02;101856;1300;126204;-60
2022/12/04 09:07:11;;;;;;;102.40;37.70;;;;;;;-6.40;88.24;101767.77;99849;1328;544812;-59
2022/12/04 09:09:38;;;;;;;58.60;22.70;;;;;;;-6.26;88.44;101788.31;101711;1292;22616;-58
2022/12/04 09:12:12;;;;;;;59.80;20.90;;;;;;;-6.22;88.49;101790.52;101277;1305;138853;-59
2022/12/04 09:14:38;;;;;;;;;;;;;;;-6.18;88.57;101787.98;101876;1284;24466;-60
2022/12/04 09:17:05;;;;;;;55.80;29.60;;;;;;;-6.17;88.49;101789.30;101764;1301;124995;-60
2022/12/04 09:19:34;;;;;;;28.80;13.90;;;;;;;-6.15;88.32;101789.57;102117;1298;22496;-60
2022/12/04 09:22:00;;;;;;;29.30;14.70;;;;;;;-6.14;87.98;101789.52;102281;1288;125346;-59
2022/12/04 09:24:29;;;;;;;28.80;14.10;;;;;;;-6.14;88.06;101782.09;102220;1294;138256;-59
2022/12/04 09:26:56;;;;;;;24.70;14.30;;;;;;;-6.13;88.05;101785.39;106684;1303;22919;-60
2022/12/04 09:29:24;;;;;;;;;;;;;;;-6.11;87.83;101786.14;106590;1301;138965;-64
2022/12/04 09:31:51;;;;;;;23.00;11.60;;;;;;;-6.11;87.63;101791.98;106702;1303;22269;-63
2022/12/04 09:34:18;;;;;;;;;;;;;;;-6.11;87.78;101792.46;106625;1303;22376;-57
2022/12/04 09:36:45;;;;;;;29.50;12.50;;;;;;;-6.09;87.54;101790.58;103885;1292;125091;-56
2022/12/04 09:39:11;;;;;;;;;;;;;;;-6.07;87.43;101784.97;102566;1286;24830;-59
2022/12/04 09:41:58;;;;;;;64.40;24.10;;;;;;;-6.07;87.26;101784.58;102359;1284;124683;-58
2022/12/04 09:45:03;;;;;;;36.60;14.80;;;;;;;-6.09;87.04;101782.98;102514;1292;24910;-57
2022/12/04 09:47:33;;;;;;;62.00;20.90;;;;;;;-6.13;86.89;101778.83;102306;1286;139240;-57
2022/12/04 09:50:04;;;;;;;57.10;20.70;;;;;;;-6.17;86.73;101772.16;102518;1299;24672;-57
2022/12/04 09:52:45;;;;;;;70.50;40.30;;;;;;;-6.26;86.69;101762.27;102372;1284;139229;-58
2022/12/04 09:55:43;;;;;;;44.20;24.10;;;;;;;-6.25;86.77;101764.38;102502;1291;23946;-57
2022/12/04 09:58:18;;;;;;;78.80;26.40;;;;;;;-6.27;86.68;101766.61;102401;1295;22485;-57
2022/12/04 10:00:46;;;;;;;71.30;26.90;;;;;;;-6.27;86.93;101768.39;106698;1299;139795;-59
2022/12/04 10:03:15;;;;;;;27.10;14.30;;;;;;;-6.24;87.06;101766.62;106795;1296;22304;-59
2022/12/04 10:06:15;;;;;;;49.00;18.30;;;;;;;-6.23;86.93;101763.34;105765;1299;139134;-58
2022/12/04 10:08:45;;;;;;;24.90;12.90;;;;;;;-6.21;86.84;101759.55;102404;1292;23217;-58
2022/12/04 10:11:25;;;;;;;20.70;10.10;;;;;;;-6.21;86.65;101757.93;102307;1301;139639;-57
2022/12/04 10:14:17;;;;;;;52.50;32.80;;;;;;;-6.26;86.35;101750.79;102430;1301;24278;-57
2022/12/04 10:16:56;;;;;;;70.20;32.40;;;;;;;-6.28;86.36;101751.81;102326;1307;139895;-56
2022/12/04 10:19:42;;;;;;;77.40;28.50;;;;;;;-6.29;86.40;101746.38;102428;1305;25254;-56
2022/12/04 10:22:32;;;;;;;28.90;13.80;;;;;;;-6.27;86.21;101742.24;102475;1286;24535;-56
2022/12/04 10:25:26;;;;;;;32.80;14.70;;;;;;;-6.29;85.78;101745.67;102485;1286;22499;-56
2022/12/04 10:27:56;;;;;;;44.80;18.30;;;;;;;-6.31;85.78;101741.40;102409;1281;22558;-54
2022/12/04 10:30:28;;;;;;;24.60;12.10;;;;;;;-6.32;85.64;101742.35;102278;1289;138639;-55
2022/12/04 10:33:16;;;;;;;121.30;47.80;;;;;;;-6.32;85.28;101744.27;102456;1295;22515;-56
2022/12/04 10:35:46;;;;;;;32.40;19.00;;;;;;;-6.32;85.45;101742.91;102429;1292;139053;-56
2022/12/04 10:38:43;;;;;;;31.00;16.70;;;;;;;-6.30;85.45;101741.85;106792;1294;22153;-57
2022/12/04 10:41:37;;;;;;;64.20;32.30;;;;;;;-6.22;85.42;101743.81;106666;1303;138578;-56
2022/12/04 10:44:04;;;;;;;57.60;24.30;;;;;;;-6.11;85.36;101744.02;106862;1293;23079;-55
2022/12/04 10:46:32;;;;;;;22.00;12.30;;;;;;;-6.02;85.04;101740.08;106834;1301;139787;-58
2022/12/04 10:49:26;;;;;;;28.90;14.40;;;;;;;-5.92;84.51;101737.52;106777;1300;22235;-58
2022/12/04 10:51:53;;;;;;;30.00;14.70;;;;;;;-5.84;83.93;101737.11;106830;1300;22116;-58
2022/12/04 10:54:31;;;;;;;36.90;17.60;;;;;;;-5.77;83.63;101734.40;106728;1300;138224;-58
2022/12/04 10:57:09;;;;;;;82.40;48.20;;;;;;;-5.70;83.44;101727.91;106845;1295;22206;-58
2022/12/04 10:59:54;;;;;;;112.40;43.10;;;;;;;-5.64;82.89;101724.54;106727;1302;139625;-58
2022/12/04 11:02:24;;;;;;;71.90;29.70;;;;;;;-5.57;82.88;101719.92;106827;1300;22403;-58
2022/12/04 11:04:59;;;;;;;45.30;17.00;;;;;;;-5.47;82.55;101714.31;106681;1294;138165;-57
2022/12/04 11:07:27;;;;;;;31.20;13.70;;;;;;;-5.38;82.06;101705.06;106767;1303;22141;-58
2022/12/04 11:10:02;;;;;;;27.30;12.20;;;;;;;-5.31;81.30;101699.84;106733;1306;22320;-57
2022/12/04 11:12:29;;;;;;;23.20;10.60;;;;;;;-5.27;80.55;101694.80;106793;1300;137875;-57
2022/12/04 11:15:05;;;;;;;72.30;28.20;;;;;;;-5.26;79.82;101695.25;106916;1300;22192;-57
2022/12/04 11:17:32;;;;;;;37.10;13.20;;;;;;;-5.26;79.32;101690.98;106741;1303;138534;-59
2022/12/04 11:20:04;;;;;;;;;;;;;;;-5.24;78.93;101692.13;106799;1294;22351;-57
2022/12/04 11:22:31;;;;;;;22.10;11.10;;;;;;;-5.28;78.36;101682.45;106848;1302;22162;-58
2022/12/04 11:24:58;;;;;;;17.00;8.90;;;;;;;-5.23;78.12;101691.35;106796;1302;22138;-58
2022/12/04 11:27:26;;;;;;;;;;;;;;;-5.22;77.49;101690.95;106686;1303;22394;-58
2022/12/04 11:29:53;;;;;;;28.70;11.60;;;;;;;-5.21;77.31;101693.17;106706;1302;124007;-57
2022/12/04 11:32:25;;;;;;;20.50;10.10;;;;;;;-5.20;77.44;101693.40;106820;1303;22221;-57
2022/12/04 11:34:53;;;;;;;25.80;11.40;;;;;;;-5.15;77.70;101692.54;106611;1288;138378;-58
2022/12/04 11:37:24;;;;;;;51.30;16.10;;;;;;;-5.08;77.49;101694.34;106698;1297;22358;-54
2022/12/04 11:39:50;;;;;;;45.70;18.60;;;;;;;-4.99;77.33;101693.23;106742;1296;22155;-54
2022/12/04 11:42:18;;;;;;;;;;;;;;;-4.94;76.31;101684.38;106674;1300;140008;-55
2022/12/04 11:44:53;;;;;;;18.60;7.00;;;;;;;-4.91;75.83;101684.52;106802;1298;22359;-55